sensor_id;sensor_type;location;lat;lon;timestamp;P1;durP1;ratioP1;P2;durP2;ratioP2
3149;SDS011;32503;47.748;8.960;2023-02-28T00:01:13;5.63;;;5.17;;
3149;SDS011;32503;47.748;8.960;2023-02-28T00:03:41;5.47;;;4.50;;
3149;SDS011;32503;47.748;8.960;2023-02-28T00:06:08;6.30;;;4.73;;
3149;SDS011;32503;47.748;8.960;2023-02-28T00:08:35;5.97;;;4.83;;
3149;SDS011;32503;47.748;8.960;2023-02-28T00:11:04;6.97;;;4.87;;
3149;SDS011;32503;47.748;8.960;2023-02-28T00:13:35;5.87;;;5.23;;
3149;SDS011;32503;47.748;8.960;2023-02-28T00:16:06;5.77;;;5.33;;
3149;SDS011;32503;47.748;8.960;2023-02-28T00:18:36;6.30;;;5.07;;
3149;SDS011;32503;47.748;8.960;2023-02-28T00:21:03;6.40;;;5.13;;
3149;SDS011;32503;47.748;8.960;2023-02-28T00:23:31;6.80;;;6.10;;
3149;SDS011;32503;47.748;8.960;2023-02-28T00:25:58;6.53;;;5.03;;
3149;SDS011;32503;47.748;8.960;2023-02-28T00:28:26;7.70;;;5.33;;
3149;SDS011;32503;47.748;8.960;2023-02-28T00:30:53;6.63;;;6.00;;
3149;SDS011;32503;47.748;8.960;2023-02-28T00:33:21;8.97;;;5.67;;
3149;SDS011;32503;47.748;8.960;2023-02-28T00:35:48;5.27;;;4.60;;
3149;SDS011;32503;47.748;8.960;2023-02-28T00:38:15;10.37;;;5.10;;
3149;SDS011;32503;47.748;8.960;2023-02-28T00:40:42;4.90;;;4.50;;
3149;SDS011;32503;47.748;8.960;2023-02-28T00:43:09;5.50;;;4.93;;
3149;SDS011;32503;47.748;8.960;2023-02-28T00:45:36;6.43;;;5.80;;
3149;SDS011;32503;47.748;8.960;2023-02-28T00:48:04;6.83;;;5.30;;
3149;SDS011;32503;47.748;8.960;2023-02-28T00:50:32;5.40;;;4.90;;
3149;SDS011;32503;47.748;8.960;2023-02-28T00:52:59;5.60;;;5.20;;
3149;SDS011;32503;47.748;8.960;2023-02-28T00:55:26;6.43;;;5.83;;
3149;SDS011;32503;47.748;8.960;2023-02-28T00:57:53;5.97;;;4.93;;
3149;SDS011;32503;47.748;8.960;2023-02-28T01:00:20;5.50;;;5.00;;
3149;SDS011;32503;47.748;8.960;2023-02-28T01:02:48;5.20;;;4.70;;
3149;SDS011;32503;47.748;8.960;2023-02-28T01:05:15;5.20;;;4.90;;
3149;SDS011;32503;47.748;8.960;2023-02-28T01:07:43;5.30;;;4.80;;
3149;SDS011;32503;47.748;8.960;2023-02-28T01:10:10;6.27;;;5.10;;
3149;SDS011;32503;47.748;8.960;2023-02-28T01:12:37;5.10;;;4.73;;
3149;SDS011;32503;47.748;8.960;2023-02-28T01:15:05;7.00;;;5.23;;
3149;SDS011;32503;47.748;8.960;2023-02-28T01:17:33;7.23;;;5.03;;
3149;SDS011;32503;47.748;8.960;2023-02-28T01:20:00;7.57;;;5.23;;
3149;SDS011;32503;47.748;8.960;2023-02-28T01:22:27;5.33;;;4.90;;
3149;SDS011;32503;47.748;8.960;2023-02-28T01:24:56;5.97;;;5.10;;
3149;SDS011;32503;47.748;8.960;2023-02-28T01:27:23;5.73;;;5.00;;
3149;SDS011;32503;47.748;8.960;2023-02-28T01:29:51;6.93;;;4.80;;
3149;SDS011;32503;47.748;8.960;2023-02-28T01:32:18;5.40;;;4.90;;
3149;SDS011;32503;47.748;8.960;2023-02-28T01:34:45;4.80;;;4.43;;
3149;SDS011;32503;47.748;8.960;2023-02-28T01:37:12;7.87;;;5.10;;
3149;SDS011;32503;47.748;8.960;2023-02-28T01:39:39;5.20;;;4.80;;
3149;SDS011;32503;47.748;8.960;2023-02-28T01:42:09;5.63;;;4.83;;
3149;SDS011;32503;47.748;8.960;2023-02-28T01:44:57;5.20;;;4.70;;
3149;SDS011;32503;47.748;8.960;2023-02-28T01:47:29;5.13;;;4.73;;
3149;SDS011;32503;47.748;8.960;2023-02-28T01:50:00;5.10;;;4.70;;
3149;SDS011;32503;47.748;8.960;2023-02-28T01:52:33;6.70;;;5.20;;
3149;SDS011;32503;47.748;8.960;2023-02-28T01:55:01;4.47;;;4.17;;
3149;SDS011;32503;47.748;8.960;2023-02-28T01:57:34;6.17;;;4.20;;
3149;SDS011;32503;47.748;8.960;2023-02-28T02:00:05;4.07;;;3.73;;
3149;SDS011;32503;47.748;8.960;2023-02-28T02:02:38;5.00;;;4.60;;
3149;SDS011;32503;47.748;8.960;2023-02-28T02:05:08;4.43;;;3.90;;
3149;SDS011;32503;47.748;8.960;2023-02-28T02:07:39;4.33;;;3.97;;
3149;SDS011;32503;47.748;8.960;2023-02-28T02:10:11;4.60;;;4.20;;
3149;SDS011;32503;47.748;8.960;2023-02-28T02:12:50;6.73;;;4.67;;
3149;SDS011;32503;47.748;8.960;2023-02-28T02:15:49;8.00;;;5.27;;
3149;SDS011;32503;47.748;8.960;2023-02-28T02:18:30;3.83;;;3.53;;
3149;SDS011;32503;47.748;8.960;2023-02-28T02:28:11;4.53;;;4.10;;
3149;SDS011;32503;47.748;8.960;2023-02-28T02:31:29;3.80;;;3.50;;
3149;SDS011;32503;47.748;8.960;2023-02-28T02:34:26;4.43;;;4.07;;
3149;SDS011;32503;47.748;8.960;2023-02-28T02:37:12;5.03;;;4.30;;
3149;SDS011;32503;47.748;8.960;2023-02-28T02:39:49;4.00;;;3.70;;
3149;SDS011;32503;47.748;8.960;2023-02-28T02:42:29;6.00;;;4.60;;
3149;SDS011;32503;47.748;8.960;2023-02-28T02:45:06;4.60;;;4.30;;
3149;SDS011;32503;47.748;8.960;2023-02-28T02:47:38;4.50;;;4.10;;
3149;SDS011;32503;47.748;8.960;2023-02-28T02:50:11;4.73;;;4.37;;
3149;SDS011;32503;47.748;8.960;2023-02-28T02:52:44;5.20;;;4.80;;
3149;SDS011;32503;47.748;8.960;2023-02-28T02:55:17;4.07;;;3.80;;
3149;SDS011;32503;47.748;8.960;2023-02-28T02:57:47;4.60;;;4.20;;
3149;SDS011;32503;47.748;8.960;2023-02-28T03:00:18;4.80;;;4.40;;
3149;SDS011;32503;47.748;8.960;2023-02-28T03:02:49;3.83;;;3.53;;
3149;SDS011;32503;47.748;8.960;2023-02-28T03:05:23;3.93;;;3.60;;
3149;SDS011;32503;47.748;8.960;2023-02-28T03:07:53;4.43;;;4.03;;
3149;SDS011;32503;47.748;8.960;2023-02-28T03:10:30;3.83;;;3.53;;
3149;SDS011;32503;47.748;8.960;2023-02-28T03:13:26;3.53;;;3.33;;
3149;SDS011;32503;47.748;8.960;2023-02-28T03:16:54;4.73;;;4.33;;
3149;SDS011;32503;47.748;8.960;2023-02-28T03:19:55;3.63;;;3.33;;
3149;SDS011;32503;47.748;8.960;2023-02-28T03:22:39;4.77;;;4.37;;
3149;SDS011;32503;47.748;8.960;2023-02-28T03:25:20;3.90;;;3.70;;
3149;SDS011;32503;47.748;8.960;2023-02-28T03:28:00;6.53;;;4.30;;
3149;SDS011;32503;47.748;8.960;2023-02-28T03:30:36;4.20;;;3.90;;
3149;SDS011;32503;47.748;8.960;2023-02-28T03:33:11;4.83;;;4.53;;
3149;SDS011;32503;47.748;8.960;2023-02-28T03:35:43;5.00;;;4.63;;
3149;SDS011;32503;47.748;8.960;2023-02-28T03:38:20;4.33;;;4.03;;
3149;SDS011;32503;47.748;8.960;2023-02-28T03:40:55;4.80;;;4.30;;
3149;SDS011;32503;47.748;8.960;2023-02-28T03:43:29;4.90;;;4.53;;
3149;SDS011;32503;47.748;8.960;2023-02-28T03:46:03;6.30;;;4.40;;
3149;SDS011;32503;47.748;8.960;2023-02-28T03:48:37;4.67;;;3.70;;
3149;SDS011;32503;47.748;8.960;2023-02-28T03:51:09;4.83;;;4.10;;
3149;SDS011;32503;47.748;8.960;2023-02-28T03:53:44;4.80;;;4.50;;
3149;SDS011;32503;47.748;8.960;2023-02-28T03:56:17;4.57;;;4.20;;
3149;SDS011;32503;47.748;8.960;2023-02-28T03:58:49;3.80;;;3.50;;
3149;SDS011;32503;47.748;8.960;2023-02-28T04:01:22;5.27;;;4.43;;
3149;SDS011;32503;47.748;8.960;2023-02-28T04:03:54;4.27;;;4.00;;
3149;SDS011;32503;47.748;8.960;2023-02-28T04:06:21;4.10;;;3.80;;
3149;SDS011;32503;47.748;8.960;2023-02-28T04:08:51;4.90;;;4.60;;
3149;SDS011;32503;47.748;8.960;2023-02-28T04:11:21;5.00;;;4.50;;
3149;SDS011;32503;47.748;8.960;2023-02-28T04:13:52;4.30;;;4.00;;
3149;SDS011;32503;47.748;8.960;2023-02-28T04:16:19;6.70;;;5.87;;
3149;SDS011;32503;47.748;8.960;2023-02-28T04:18:46;4.43;;;4.13;;
3149;SDS011;32503;47.748;8.960;2023-02-28T04:21:13;4.60;;;4.30;;
3149;SDS011;32503;47.748;8.960;2023-02-28T04:23:40;5.57;;;5.10;;
3149;SDS011;32503;47.748;8.960;2023-02-28T04:26:08;4.67;;;4.27;;
3149;SDS011;32503;47.748;8.960;2023-02-28T04:28:36;4.53;;;4.23;;
3149;SDS011;32503;47.748;8.960;2023-02-28T04:31:04;4.77;;;4.43;;
3149;SDS011;32503;47.748;8.960;2023-02-28T04:33:32;5.03;;;4.63;;
3149;SDS011;32503;47.748;8.960;2023-02-28T04:35:59;7.63;;;4.53;;
3149;SDS011;32503;47.748;8.960;2023-02-28T04:38:29;4.50;;;4.10;;
3149;SDS011;32503;47.748;8.960;2023-02-28T04:40:58;4.67;;;4.27;;
3149;SDS011;32503;47.748;8.960;2023-02-28T04:43:27;5.13;;;4.77;;
3149;SDS011;32503;47.748;8.960;2023-02-28T04:45:55;5.10;;;4.60;;
3149;SDS011;32503;47.748;8.960;2023-02-28T04:48:24;5.70;;;4.50;;
3149;SDS011;32503;47.748;8.960;2023-02-28T04:50:53;5.83;;;4.40;;
3149;SDS011;32503;47.748;8.960;2023-02-28T04:53:21;5.07;;;4.67;;
3149;SDS011;32503;47.748;8.960;2023-02-28T04:55:48;5.90;;;4.50;;
3149;SDS011;32503;47.748;8.960;2023-02-28T04:58:15;5.60;;;4.60;;
3149;SDS011;32503;47.748;8.960;2023-02-28T05:00:43;5.87;;;5.37;;
3149;SDS011;32503;47.748;8.960;2023-02-28T05:03:10;8.70;;;4.50;;
3149;SDS011;32503;47.748;8.960;2023-02-28T05:05:37;4.67;;;4.27;;
3149;SDS011;32503;47.748;8.960;2023-02-28T05:08:04;5.50;;;4.97;;
3149;SDS011;32503;47.748;8.960;2023-02-28T05:10:31;5.43;;;4.17;;
3149;SDS011;32503;47.748;8.960;2023-02-28T05:12:58;5.47;;;4.90;;
3149;SDS011;32503;47.748;8.960;2023-02-28T05:15:25;6.20;;;5.00;;
3149;SDS011;32503;47.748;8.960;2023-02-28T05:17:54;9.27;;;5.20;;
3149;SDS011;32503;47.748;8.960;2023-02-28T05:20:21;4.70;;;4.37;;
3149;SDS011;32503;47.748;8.960;2023-02-28T05:22:49;6.93;;;4.53;;
3149;SDS011;32503;47.748;8.960;2023-02-28T05:25:17;5.13;;;4.70;;
3149;SDS011;32503;47.748;8.960;2023-02-28T05:27:47;7.07;;;5.20;;
3149;SDS011;32503;47.748;8.960;2023-02-28T05:30:15;5.00;;;4.50;;
3149;SDS011;32503;47.748;8.960;2023-02-28T05:32:42;4.97;;;4.50;;
3149;SDS011;32503;47.748;8.960;2023-02-28T05:35:11;4.93;;;4.53;;
3149;SDS011;32503;47.748;8.960;2023-02-28T05:37:38;5.30;;;4.93;;
3149;SDS011;32503;47.748;8.960;2023-02-28T05:40:06;5.73;;;5.23;;
3149;SDS011;32503;47.748;8.960;2023-02-28T05:42:35;6.90;;;5.00;;
3149;SDS011;32503;47.748;8.960;2023-02-28T05:45:02;5.93;;;5.40;;
3149;SDS011;32503;47.748;8.960;2023-02-28T05:47:30;6.80;;;5.23;;
3149;SDS011;32503;47.748;8.960;2023-02-28T05:49:57;5.20;;;4.70;;
3149;SDS011;32503;47.748;8.960;2023-02-28T05:52:26;8.37;;;5.37;;
3149;SDS011;32503;47.748;8.960;2023-02-28T05:54:55;5.80;;;4.60;;
3149;SDS011;32503;47.748;8.960;2023-02-28T05:57:22;5.80;;;5.30;;
3149;SDS011;32503;47.748;8.960;2023-02-28T05:59:49;8.80;;;5.77;;
3149;SDS011;32503;47.748;8.960;2023-02-28T06:02:17;6.37;;;5.00;;
3149;SDS011;32503;47.748;8.960;2023-02-28T06:04:44;6.03;;;4.60;;
3149;SDS011;32503;47.748;8.960;2023-02-28T06:07:12;4.80;;;4.40;;
3149;SDS011;32503;47.748;8.960;2023-02-28T06:09:40;6.03;;;5.40;;
3149;SDS011;32503;47.748;8.960;2023-02-28T06:12:07;7.53;;;5.43;;
3149;SDS011;32503;47.748;8.960;2023-02-28T06:14:35;6.57;;;5.87;;
3149;SDS011;32503;47.748;8.960;2023-02-28T06:17:03;6.47;;;5.10;;
3149;SDS011;32503;47.748;8.960;2023-02-28T06:19:30;7.77;;;4.80;;
3149;SDS011;32503;47.748;8.960;2023-02-28T06:21:57;6.60;;;4.93;;
3149;SDS011;32503;47.748;8.960;2023-02-28T06:24:25;7.00;;;6.20;;
3149;SDS011;32503;47.748;8.960;2023-02-28T06:26:55;5.60;;;5.10;;
3149;SDS011;32503;47.748;8.960;2023-02-28T06:29:23;9.70;;;6.53;;
3149;SDS011;32503;47.748;8.960;2023-02-28T06:31:51;8.17;;;5.60;;
3149;SDS011;32503;47.748;8.960;2023-02-28T06:34:18;6.37;;;5.77;;
3149;SDS011;32503;47.748;8.960;2023-02-28T06:36:45;6.30;;;4.67;;
3149;SDS011;32503;47.748;8.960;2023-02-28T06:39:12;6.23;;;5.70;;
3149;SDS011;32503;47.748;8.960;2023-02-28T06:41:39;8.90;;;6.20;;
3149;SDS011;32503;47.748;8.960;2023-02-28T06:44:12;7.17;;;6.00;;
3149;SDS011;32503;47.748;8.960;2023-02-28T06:46:41;5.87;;;5.40;;
3149;SDS011;32503;47.748;8.960;2023-02-28T06:49:09;6.60;;;5.93;;
3149;SDS011;32503;47.748;8.960;2023-02-28T06:51:38;6.10;;;5.50;;
3149;SDS011;32503;47.748;8.960;2023-02-28T06:54:07;8.47;;;5.43;;
3149;SDS011;32503;47.748;8.960;2023-02-28T06:56:35;8.10;;;6.00;;
3149;SDS011;32503;47.748;8.960;2023-02-28T06:59:02;5.43;;;5.10;;
3149;SDS011;32503;47.748;8.960;2023-02-28T07:01:31;8.53;;;6.60;;
3149;SDS011;32503;47.748;8.960;2023-02-28T07:03:59;7.87;;;6.40;;
3149;SDS011;32503;47.748;8.960;2023-02-28T07:06:27;6.40;;;5.80;;
3149;SDS011;32503;47.748;8.960;2023-02-28T07:08:54;8.30;;;6.03;;
3149;SDS011;32503;47.748;8.960;2023-02-28T07:11:22;8.47;;;6.30;;
3149;SDS011;32503;47.748;8.960;2023-02-28T07:13:51;5.33;;;4.83;;
3149;SDS011;32503;47.748;8.960;2023-02-28T07:16:18;8.88;;;6.00;;
3149;SDS011;32503;47.748;8.960;2023-02-28T07:18:46;11.30;;;6.17;;
3149;SDS011;32503;47.748;8.960;2023-02-28T07:21:14;10.30;;;6.67;;
3149;SDS011;32503;47.748;8.960;2023-02-28T07:23:41;8.47;;;5.90;;
3149;SDS011;32503;47.748;8.960;2023-02-28T07:26:10;8.13;;;6.60;;
3149;SDS011;32503;47.748;8.960;2023-02-28T07:28:40;7.37;;;5.73;;
3149;SDS011;32503;47.748;8.960;2023-02-28T07:31:08;13.30;;;7.70;;
3149;SDS011;32503;47.748;8.960;2023-02-28T07:33:36;5.73;;;5.23;;
3149;SDS011;32503;47.748;8.960;2023-02-28T07:36:06;6.63;;;5.90;;
3149;SDS011;32503;47.748;8.960;2023-02-28T07:38:39;10.17;;;7.23;;
3149;SDS011;32503;47.748;8.960;2023-02-28T07:41:06;7.03;;;6.37;;
3149;SDS011;32503;47.748;8.960;2023-02-28T07:43:33;9.33;;;5.47;;
3149;SDS011;32503;47.748;8.960;2023-02-28T07:46:01;6.17;;;5.60;;
3149;SDS011;32503;47.748;8.960;2023-02-28T07:48:30;8.10;;;5.97;;
3149;SDS011;32503;47.748;8.960;2023-02-28T07:50:58;7.70;;;5.73;;
3149;SDS011;32503;47.748;8.960;2023-02-28T07:53:27;8.47;;;7.47;;
3149;SDS011;32503;47.748;8.960;2023-02-28T07:55:55;7.90;;;6.83;;
3149;SDS011;32503;47.748;8.960;2023-02-28T07:58:23;11.33;;;6.73;;
3149;SDS011;32503;47.748;8.960;2023-02-28T08:00:52;5.93;;;5.33;;
3149;SDS011;32503;47.748;8.960;2023-02-28T08:03:19;6.87;;;5.57;;
3149;SDS011;32503;47.748;8.960;2023-02-28T08:05:48;5.80;;;5.33;;
3149;SDS011;32503;47.748;8.960;2023-02-28T08:08:17;6.60;;;6.00;;
3149;SDS011;32503;47.748;8.960;2023-02-28T08:10:45;9.63;;;6.67;;
3149;SDS011;32503;47.748;8.960;2023-02-28T08:13:13;8.57;;;7.70;;
3149;SDS011;32503;47.748;8.960;2023-02-28T08:15:40;6.87;;;6.20;;
3149;SDS011;32503;47.748;8.960;2023-02-28T08:18:08;6.07;;;5.37;;
3149;SDS011;32503;47.748;8.960;2023-02-28T08:20:35;8.50;;;6.30;;
3149;SDS011;32503;47.748;8.960;2023-02-28T08:23:02;7.07;;;6.47;;
3149;SDS011;32503;47.748;8.960;2023-02-28T08:25:29;6.23;;;5.60;;
3149;SDS011;32503;47.748;8.960;2023-02-28T08:27:58;8.07;;;5.30;;
3149;SDS011;32503;47.748;8.960;2023-02-28T08:30:25;7.60;;;6.13;;
3149;SDS011;32503;47.748;8.960;2023-02-28T08:32:52;6.67;;;5.93;;
3149;SDS011;32503;47.748;8.960;2023-02-28T08:35:20;6.67;;;5.73;;
3149;SDS011;32503;47.748;8.960;2023-02-28T08:37:47;8.03;;;5.53;;
3149;SDS011;32503;47.748;8.960;2023-02-28T08:40:15;7.30;;;5.80;;
3149;SDS011;32503;47.748;8.960;2023-02-28T08:42:43;7.93;;;5.73;;
3149;SDS011;32503;47.748;8.960;2023-02-28T08:45:12;7.47;;;6.03;;
3149;SDS011;32503;47.748;8.960;2023-02-28T08:47:40;13.60;;;5.90;;
3149;SDS011;32503;47.748;8.960;2023-02-28T08:50:08;7.43;;;5.90;;
3149;SDS011;32503;47.748;8.960;2023-02-28T08:52:36;8.30;;;6.47;;
3149;SDS011;32503;47.748;8.960;2023-02-28T08:55:04;7.27;;;6.40;;
3149;SDS011;32503;47.748;8.960;2023-02-28T08:57:31;7.57;;;6.27;;
3149;SDS011;32503;47.748;8.960;2023-02-28T08:59:58;8.50;;;6.00;;
3149;SDS011;32503;47.748;8.960;2023-02-28T09:02:30;6.77;;;5.50;;
3149;SDS011;32503;47.748;8.960;2023-02-28T09:04:57;6.50;;;5.73;;
3149;SDS011;32503;47.748;8.960;2023-02-28T09:07:25;8.00;;;6.27;;
3149;SDS011;32503;47.748;8.960;2023-02-28T09:09:52;5.93;;;5.37;;
3149;SDS011;32503;47.748;8.960;2023-02-28T09:12:23;9.90;;;7.20;;
3149;SDS011;32503;47.748;8.960;2023-02-28T09:14:51;7.87;;;6.43;;
3149;SDS011;32503;47.748;8.960;2023-02-28T09:17:19;8.87;;;6.70;;
3149;SDS011;32503;47.748;8.960;2023-02-28T09:19:49;10.10;;;6.57;;
3149;SDS011;32503;47.748;8.960;2023-02-28T09:22:16;8.17;;;6.30;;
3149;SDS011;32503;47.748;8.960;2023-02-28T09:24:43;6.37;;;5.73;;
3149;SDS011;32503;47.748;8.960;2023-02-28T09:27:10;7.63;;;6.83;;
3149;SDS011;32503;47.748;8.960;2023-02-28T09:29:37;12.07;;;6.00;;
3149;SDS011;32503;47.748;8.960;2023-02-28T09:32:04;9.33;;;6.57;;
3149;SDS011;32503;47.748;8.960;2023-02-28T09:34:32;6.43;;;5.80;;
3149;SDS011;32503;47.748;8.960;2023-02-28T09:37:00;6.10;;;5.47;;
3149;SDS011;32503;47.748;8.960;2023-02-28T09:39:27;6.83;;;6.20;;
3149;SDS011;32503;47.748;8.960;2023-02-28T09:41:54;8.83;;;6.50;;
3149;SDS011;32503;47.748;8.960;2023-02-28T09:44:25;10.20;;;7.07;;
3149;SDS011;32503;47.748;8.960;2023-02-28T09:46:57;7.30;;;6.53;;
3149;SDS011;32503;47.748;8.960;2023-02-28T09:49:29;8.40;;;5.60;;
3149;SDS011;32503;47.748;8.960;2023-02-28T09:52:09;7.80;;;6.70;;
3149;SDS011;32503;47.748;8.960;2023-02-28T09:54:41;7.30;;;6.20;;
3149;SDS011;32503;47.748;8.960;2023-02-28T09:57:09;11.07;;;8.27;;
3149;SDS011;32503;47.748;8.960;2023-02-28T09:59:51;8.73;;;6.47;;
3149;SDS011;32503;47.748;8.960;2023-02-28T10:02:46;6.60;;;6.03;;
3149;SDS011;32503;47.748;8.960;2023-02-28T10:05:30;7.93;;;6.20;;
3149;SDS011;32503;47.748;8.960;2023-02-28T10:08:07;8.00;;;6.10;;
3149;SDS011;32503;47.748;8.960;2023-02-28T10:10:41;7.37;;;6.30;;
3149;SDS011;32503;47.748;8.960;2023-02-28T10:13:14;9.00;;;6.73;;
3149;SDS011;32503;47.748;8.960;2023-02-28T10:15:50;6.40;;;5.90;;
3149;SDS011;32503;47.748;8.960;2023-02-28T10:18:23;9.73;;;6.20;;
3149;SDS011;32503;47.748;8.960;2023-02-28T10:20:53;13.60;;;7.50;;
3149;SDS011;32503;47.748;8.960;2023-02-28T10:23:24;8.33;;;6.50;;
3149;SDS011;32503;47.748;8.960;2023-02-28T10:25:55;13.13;;;9.00;;
3149;SDS011;32503;47.748;8.960;2023-02-28T10:28:29;10.37;;;7.67;;
3149;SDS011;32503;47.748;8.960;2023-02-28T10:30:58;11.17;;;7.00;;
3149;SDS011;32503;47.748;8.960;2023-02-28T10:33:28;9.80;;;6.93;;
3149;SDS011;32503;47.748;8.960;2023-02-28T10:35:59;8.50;;;5.50;;
3149;SDS011;32503;47.748;8.960;2023-02-28T10:38:32;8.80;;;6.70;;
3149;SDS011;32503;47.748;8.960;2023-02-28T10:41:05;10.63;;;7.60;;
3149;SDS011;32503;47.748;8.960;2023-02-28T10:43:34;8.07;;;7.30;;
3149;SDS011;32503;47.748;8.960;2023-02-28T10:46:03;9.00;;;7.67;;
3149;SDS011;32503;47.748;8.960;2023-02-28T10:48:40;7.50;;;6.07;;
3149;SDS011;32503;47.748;8.960;2023-02-28T10:51:10;13.03;;;8.23;;
3149;SDS011;32503;47.748;8.960;2023-02-28T10:53:45;9.83;;;7.60;;
3149;SDS011;32503;47.748;8.960;2023-02-28T10:56:15;12.97;;;8.70;;
3149;SDS011;32503;47.748;8.960;2023-02-28T10:58:47;15.27;;;9.10;;
3149;SDS011;32503;47.748;8.960;2023-02-28T11:01:22;11.40;;;8.40;;
3149;SDS011;32503;47.748;8.960;2023-02-28T11:03:51;11.80;;;7.90;;
3149;SDS011;32503;47.748;8.960;2023-02-28T11:06:19;10.87;;;8.23;;
3149;SDS011;32503;47.748;8.960;2023-02-28T11:08:52;16.30;;;9.20;;
3149;SDS011;32503;47.748;8.960;2023-02-28T11:11:22;11.63;;;7.77;;
3149;SDS011;32503;47.748;8.960;2023-02-28T11:13:53;14.30;;;9.53;;
3149;SDS011;32503;47.748;8.960;2023-02-28T11:16:30;13.27;;;9.07;;
3149;SDS011;32503;47.748;8.960;2023-02-28T11:18:59;11.87;;;7.83;;
3149;SDS011;32503;47.748;8.960;2023-02-28T11:21:27;14.67;;;8.50;;
3149;SDS011;32503;47.748;8.960;2023-02-28T11:23:59;11.60;;;9.17;;
3149;SDS011;32503;47.748;8.960;2023-02-28T11:26:37;9.60;;;7.60;;
3149;SDS011;32503;47.748;8.960;2023-02-28T11:29:11;12.77;;;7.93;;
3149;SDS011;32503;47.748;8.960;2023-02-28T11:32:00;12.97;;;8.00;;
3149;SDS011;32503;47.748;8.960;2023-02-28T11:34:42;7.63;;;6.83;;
3149;SDS011;32503;47.748;8.960;2023-02-28T11:37:11;13.07;;;8.77;;
3149;SDS011;32503;47.748;8.960;2023-02-28T11:39:43;9.70;;;7.53;;
3149;SDS011;32503;47.748;8.960;2023-02-28T11:42:15;9.43;;;8.30;;
3149;SDS011;32503;47.748;8.960;2023-02-28T11:44:58;11.27;;;8.80;;
3149;SDS011;32503;47.748;8.960;2023-02-28T11:47:45;13.33;;;8.20;;
3149;SDS011;32503;47.748;8.960;2023-02-28T11:50:26;14.20;;;9.17;;
3149;SDS011;32503;47.748;8.960;2023-02-28T11:53:11;15.97;;;9.17;;
3149;SDS011;32503;47.748;8.960;2023-02-28T11:55:51;15.20;;;7.67;;
3149;SDS011;32503;47.748;8.960;2023-02-28T11:58:28;13.73;;;8.37;;
3149;SDS011;32503;47.748;8.960;2023-02-28T12:01:13;9.30;;;6.97;;
3149;SDS011;32503;47.748;8.960;2023-02-28T12:03:56;11.63;;;8.50;;
3149;SDS011;32503;47.748;8.960;2023-02-28T12:06:36;13.57;;;8.57;;
3149;SDS011;32503;47.748;8.960;2023-02-28T12:09:14;12.53;;;8.60;;
3149;SDS011;32503;47.748;8.960;2023-02-28T12:12:20;93.53;;;38.67;;
3149;SDS011;32503;47.748;8.960;2023-02-28T12:18:06;11.03;;;8.47;;
3149;SDS011;32503;47.748;8.960;2023-02-28T12:20:51;15.20;;;9.37;;
3149;SDS011;32503;47.748;8.960;2023-02-28T12:23:37;14.73;;;9.10;;
3149;SDS011;32503;47.748;8.960;2023-02-28T12:26:24;15.00;;;8.73;;
3149;SDS011;32503;47.748;8.960;2023-02-28T12:29:04;16.13;;;12.63;;
3149;SDS011;32503;47.748;8.960;2023-02-28T12:31:41;13.77;;;10.20;;
3149;SDS011;32503;47.748;8.960;2023-02-28T12:34:16;13.63;;;10.37;;
3149;SDS011;32503;47.748;8.960;2023-02-28T12:36:48;16.10;;;8.17;;
3149;SDS011;32503;47.748;8.960;2023-02-28T12:39:20;17.43;;;9.03;;
3149;SDS011;32503;47.748;8.960;2023-02-28T12:41:53;14.70;;;9.23;;
3149;SDS011;32503;47.748;8.960;2023-02-28T12:44:28;14.50;;;9.30;;
3149;SDS011;32503;47.748;8.960;2023-02-28T12:47:02;12.23;;;8.37;;
3149;SDS011;32503;47.748;8.960;2023-02-28T12:49:36;16.43;;;10.00;;
3149;SDS011;32503;47.748;8.960;2023-02-28T12:52:12;11.53;;;8.47;;
3149;SDS011;32503;47.748;8.960;2023-02-28T12:54:44;12.90;;;9.50;;
3149;SDS011;32503;47.748;8.960;2023-02-28T12:57:18;15.97;;;9.20;;
3149;SDS011;32503;47.748;8.960;2023-02-28T12:59:56;12.97;;;8.20;;
3149;SDS011;32503;47.748;8.960;2023-02-28T13:02:38;13.63;;;8.97;;
3149;SDS011;32503;47.748;8.960;2023-02-28T13:05:30;11.70;;;9.10;;
3149;SDS011;32503;47.748;8.960;2023-02-28T13:08:24;16.10;;;9.40;;
3149;SDS011;32503;47.748;8.960;2023-02-28T13:11:23;13.00;;;9.10;;
3149;SDS011;32503;47.748;8.960;2023-02-28T13:13:58;12.13;;;8.37;;
3149;SDS011;32503;47.748;8.960;2023-02-28T13:16:29;14.97;;;9.43;;
3149;SDS011;32503;47.748;8.960;2023-02-28T13:19:36;15.07;;;9.50;;
3149;SDS011;32503;47.748;8.960;2023-02-28T13:22:15;15.43;;;9.27;;
3149;SDS011;32503;47.748;8.960;2023-02-28T13:24:46;11.10;;;9.13;;
3149;SDS011;32503;47.748;8.960;2023-02-28T13:33:29;14.50;;;9.10;;
3149;SDS011;32503;47.748;8.960;2023-02-28T13:38:52;17.93;;;9.77;;
3149;SDS011;32503;47.748;8.960;2023-02-28T13:44:18;14.40;;;9.30;;
3149;SDS011;32503;47.748;8.960;2023-02-28T13:49:56;10.03;;;8.10;;
3149;SDS011;32503;47.748;8.960;2023-02-28T13:52:48;16.57;;;9.50;;
3149;SDS011;32503;47.748;8.960;2023-02-28T13:55:27;16.77;;;9.50;;
3149;SDS011;32503;47.748;8.960;2023-02-28T13:58:10;17.10;;;10.00;;
3149;SDS011;32503;47.748;8.960;2023-02-28T14:01:04;13.37;;;8.70;;
3149;SDS011;32503;47.748;8.960;2023-02-28T14:04:09;15.87;;;8.80;;
3149;SDS011;32503;47.748;8.960;2023-02-28T14:07:21;19.20;;;10.37;;
3149;SDS011;32503;47.748;8.960;2023-02-28T14:09:57;14.30;;;9.67;;
3149;SDS011;32503;47.748;8.960;2023-02-28T14:15:26;13.10;;;9.10;;
3149;SDS011;32503;47.748;8.960;2023-02-28T14:18:13;14.30;;;8.90;;
3149;SDS011;32503;47.748;8.960;2023-02-28T14:20:48;13.47;;;9.40;;
3149;SDS011;32503;47.748;8.960;2023-02-28T14:23:25;24.03;;;9.97;;
3149;SDS011;32503;47.748;8.960;2023-02-28T14:26:10;17.57;;;10.73;;
3149;SDS011;32503;47.748;8.960;2023-02-28T14:28:59;10.50;;;9.10;;
3149;SDS011;32503;47.748;8.960;2023-02-28T14:31:43;16.37;;;9.73;;
3149;SDS011;32503;47.748;8.960;2023-02-28T14:34:26;20.80;;;10.93;;
3149;SDS011;32503;47.748;8.960;2023-02-28T14:37:03;18.43;;;10.77;;
3149;SDS011;32503;47.748;8.960;2023-02-28T14:39:34;16.53;;;8.63;;
3149;SDS011;32503;47.748;8.960;2023-02-28T14:42:02;13.57;;;8.97;;
3149;SDS011;32503;47.748;8.960;2023-02-28T14:44:30;13.67;;;8.23;;
3149;SDS011;32503;47.748;8.960;2023-02-28T14:46:58;18.50;;;10.30;;
3149;SDS011;32503;47.748;8.960;2023-02-28T14:49:31;15.33;;;10.10;;
3149;SDS011;32503;47.748;8.960;2023-02-28T14:52:03;19.00;;;11.80;;
3149;SDS011;32503;47.748;8.960;2023-02-28T14:54:40;17.27;;;11.20;;
3149;SDS011;32503;47.748;8.960;2023-02-28T14:57:19;14.77;;;9.93;;
3149;SDS011;32503;47.748;8.960;2023-02-28T14:59:56;12.73;;;9.73;;
3149;SDS011;32503;47.748;8.960;2023-02-28T15:02:35;16.10;;;9.50;;
3149;SDS011;32503;47.748;8.960;2023-02-28T15:05:21;13.77;;;8.90;;
3149;SDS011;32503;47.748;8.960;2023-02-28T15:08:03;15.33;;;9.90;;
3149;SDS011;32503;47.748;8.960;2023-02-28T15:10:38;15.73;;;9.67;;
3149;SDS011;32503;47.748;8.960;2023-02-28T15:13:11;11.30;;;8.93;;
3149;SDS011;32503;47.748;8.960;2023-02-28T15:15:42;13.70;;;9.60;;
3149;SDS011;32503;47.748;8.960;2023-02-28T15:18:15;16.57;;;9.83;;
3149;SDS011;32503;47.748;8.960;2023-02-28T15:20:53;14.90;;;9.07;;
3149;SDS011;32503;47.748;8.960;2023-02-28T15:23:21;14.80;;;10.43;;
3149;SDS011;32503;47.748;8.960;2023-02-28T15:25:50;15.70;;;9.90;;
3149;SDS011;32503;47.748;8.960;2023-02-28T15:28:19;13.07;;;9.43;;
3149;SDS011;32503;47.748;8.960;2023-02-28T15:30:53;15.10;;;10.43;;
3149;SDS011;32503;47.748;8.960;2023-02-28T15:33:24;17.83;;;11.20;;
3149;SDS011;32503;47.748;8.960;2023-02-28T15:36:03;14.77;;;10.47;;
3149;SDS011;32503;47.748;8.960;2023-02-28T15:38:39;23.17;;;13.97;;
3149;SDS011;32503;47.748;8.960;2023-02-28T15:41:21;14.10;;;9.93;;
3149;SDS011;32503;47.748;8.960;2023-02-28T15:46:43;17.17;;;11.10;;
3149;SDS011;32503;47.748;8.960;2023-02-28T15:49:20;19.90;;;12.60;;
3149;SDS011;32503;47.748;8.960;2023-02-28T15:51:49;16.67;;;11.10;;
3149;SDS011;32503;47.748;8.960;2023-02-28T15:54:20;17.33;;;11.50;;
3149;SDS011;32503;47.748;8.960;2023-02-28T15:56:54;13.07;;;8.90;;
3149;SDS011;32503;47.748;8.960;2023-02-28T15:59:24;14.03;;;10.83;;